Time;durP1;ratioP1;P1;durP2;ratioP2;P2;SDS_P1;SDS_P2;PMS_P1;PMS_P2;Temp;Humidity;BMP_temperature;BMP_pressure;BME280_temperature;BME280_humidity;BME280_pressure;Samples;Min_cycle;Max_cycle;Signal;HPM_P1;HPM_P2
2023/01/06 00:00:08;;;;;;;18.08;10.18;;;;;;;;;;5096386;28;20032;-76
2023/01/06 00:02:57;;;;;;;16.83;9.85;;;;;;;;;;5080224;28;20048;-73
2023/01/06 00:05:43;;;;;;;17.65;10.27;;;;;;;;;;5095495;28;20030;-76
2023/01/06 00:08:28;;;;;;;15.35;9.50;;;;;;;;;;5095027;28;20399;-73
2023/01/06 00:11:14;;;;;;;17.77;10.10;;;;;;;;;;5094150;28;20314;-73
2023/01/06 00:14:00;;;;;;;17.25;10.25;;;;;;;;;;5080526;28;20053;-74
2023/01/06 00:16:45;;;;;;;16.85;9.88;;;;;;;;;;5094570;28;20389;-73
2023/01/06 00:19:31;;;;;;;16.73;9.98;;;;;;;;;;5079833;28;20012;-73
2023/01/06 00:22:16;;;;;;;17.92;10.20;;;;;;;;;;5095183;28;20031;-73
2023/01/06 00:25:02;;;;;;;14.57;9.75;;;;;;;;;;5093938;28;20016;-72
2023/01/06 00:27:48;;;;;;;16.20;9.93;;;;;;;;;;5094312;28;20035;-73
2023/01/06 00:30:35;;;;;;;17.30;9.65;;;;;;;;;;5080544;28;20024;-73
2023/01/06 00:33:21;;;;;;;15.23;8.65;;;;;;;;;;5081197;28;20031;-74
2023/01/06 00:36:08;;;;;;;15.20;9.10;;;;;;;;;;5094107;28;20028;-74
2023/01/06 00:38:53;;;;;;;16.65;9.40;;;;;;;;;;5094750;28;20028;-74
2023/01/06 00:44:43;;;;;;;15.63;9.52;;;;;;;;;;5095204;28;20020;-74
2023/01/06 00:47:29;;;;;;;15.57;9.02;;;;;;;;;;5094030;28;20093;-72
2023/01/06 00:50:15;;;;;;;14.63;9.07;;;;;;;;;;5094912;28;20032;-74
2023/01/06 00:53:00;;;;;;;14.93;9.15;;;;;;;;;;5094841;28;20039;-72
2023/01/06 00:55:46;;;;;;;15.63;9.45;;;;;;;;;;5080017;28;20114;-73
2023/01/06 00:58:32;;;;;;;14.82;9.48;;;;;;;;;;5094140;28;20016;-72
2023/01/06 01:01:18;;;;;;;14.40;8.73;;;;;;;;;;5093521;28;20040;-72
2023/01/06 01:04:03;;;;;;;15.55;9.32;;;;;;;;;;5095092;28;20043;-73
2023/01/06 01:06:49;;;;;;;16.30;9.52;;;;;;;;;;5094307;28;20027;-73
2023/01/06 01:09:35;;;;;;;16.48;10.40;;;;;;;;;;5094966;28;20434;-73
2023/01/06 01:12:20;;;;;;;15.00;9.93;;;;;;;;;;5093714;28;20063;-73
2023/01/06 01:15:06;;;;;;;15.60;9.30;;;;;;;;;;5095116;28;20016;-73
2023/01/06 01:17:52;;;;;;;14.10;8.70;;;;;;;;;;5093692;28;20488;-73
2023/01/06 01:20:37;;;;;;;14.60;9.60;;;;;;;;;;5094478;28;20497;-73
2023/01/06 01:23:23;;;;;;;16.30;9.65;;;;;;;;;;5094723;28;20008;-72
2023/01/06 01:26:08;;;;;;;17.33;10.10;;;;;;;;;;5093981;28;20030;-73
2023/01/06 01:28:54;;;;;;;16.95;9.95;;;;;;;;;;5093901;28;20040;-72
2023/01/06 01:31:40;;;;;;;14.73;9.15;;;;;;;;;;5094028;28;20366;-72
2023/01/06 01:34:26;;;;;;;14.73;9.43;;;;;;;;;;5094282;28;20519;-73
2023/01/06 01:37:12;;;;;;;14.85;9.18;;;;;;;;;;5094017;28;20048;-72
2023/01/06 01:39:58;;;;;;;16.38;9.60;;;;;;;;;;5094637;28;20048;-73
2023/01/06 01:42:43;;;;;;;15.13;9.70;;;;;;;;;;5093469;28;20039;-72
2023/01/06 01:45:29;;;;;;;16.17;9.40;;;;;;;;;;5094142;28;20024;-73
2023/01/06 01:48:25;;;;;;;16.35;9.73;;;;;;;;;;5093047;28;20020;-74
2023/01/06 01:51:12;;;;;;;15.43;9.07;;;;;;;;;;5094153;28;20027;-74
2023/01/06 01:54:00;;;;;;;15.82;9.40;;;;;;;;;;5093823;28;20043;-73
2023/01/06 01:56:47;;;;;;;17.13;10.18;;;;;;;;;;5093811;28;20024;-73
2023/01/06 01:59:34;;;;;;;15.30;9.00;;;;;;;;;;5093340;28;20040;-73
2023/01/06 02:02:20;;;;;;;16.33;9.52;;;;;;;;;;5078761;28;20067;-73
2023/01/06 02:05:06;;;;;;;18.02;9.73;;;;;;;;;;5092648;28;20142;-73
2023/01/06 02:07:53;;;;;;;18.05;9.55;;;;;;;;;;5093756;28;20035;-73
2023/01/06 02:10:39;;;;;;;16.60;9.48;;;;;;;;;;5077914;28;20051;-74
2023/01/06 02:13:24;;;;;;;15.45;9.13;;;;;;;;;;5078234;28;20031;-73
2023/01/06 02:16:13;;;;;;;17.88;9.75;;;;;;;;;;5093249;28;20020;-72
2023/01/06 02:19:18;;;;;;;16.73;9.90;;;;;;;;;;5078329;28;20446;-73
2023/01/06 02:22:30;;;;;;;15.35;9.80;;;;;;;;;;5078691;28;20020;-72
2023/01/06 02:25:16;;;;;;;15.65;9.60;;;;;;;;;;5093432;28;20102;-73
2023/01/06 02:28:20;;;;;;;15.55;9.98;;;;;;;;;;5093506;28;20453;-72
2023/01/06 02:31:27;;;;;;;16.50;9.75;;;;;;;;;;5093471;28;20024;-74
2023/01/06 02:34:15;;;;;;;18.42;9.30;;;;;;;;;;5095754;28;20016;-74
2023/01/06 02:37:01;;;;;;;16.17;9.65;;;;;;;;;;5097499;28;20020;-73
2023/01/06 02:39:59;;;;;;;17.10;10.02;;;;;;;;;;5096249;28;20023;-73
2023/01/06 02:43:03;;;;;;;16.48;9.90;;;;;;;;;;5081286;28;20016;-72
2023/01/06 02:46:04;;;;;;;16.48;10.23;;;;;;;;;;5096725;28;20418;-73
2023/01/06 02:49:09;;;;;;;17.98;9.77;;;;;;;;;;5096501;28;20350;-75
2023/01/06 02:51:58;;;;;;;17.42;9.50;;;;;;;;;;5096992;28;20339;-72
2023/01/06 02:54:52;;;;;;;17.67;11.07;;;;;;;;;;5096738;28;20401;-73
2023/01/06 02:57:41;;;;;;;19.48;10.85;;;;;;;;;;5096097;28;20038;-73
2023/01/06 03:00:32;;;;;;;17.35;11.18;;;;;;;;;;5081617;28;20044;-73
2023/01/06 03:03:22;;;;;;;20.23;11.15;;;;;;;;;;5095494;28;20097;-73
2023/01/06 03:06:10;;;;;;;19.77;11.52;;;;;;;;;;5081465;28;20016;-74
2023/01/06 03:08:56;;;;;;;17.30;10.52;;;;;;;;;;5095921;28;20039;-73
2023/01/06 03:11:43;;;;;;;17.75;10.77;;;;;;;;;;5095856;28;20400;-72
2023/01/06 03:14:31;;;;;;;18.52;11.10;;;;;;;;;;5095396;28;20099;-73
2023/01/06 03:17:16;;;;;;;17.08;10.82;;;;;;;;;;5096646;28;20024;-72
2023/01/06 03:20:02;;;;;;;17.58;10.85;;;;;;;;;;5095483;28;20032;-73
2023/01/06 03:22:48;;;;;;;15.85;10.15;;;;;;;;;;5095740;28;20036;-73
2023/01/06 03:25:33;;;;;;;14.98;10.32;;;;;;;;;;5095338;28;20446;-74
2023/01/06 03:28:19;;;;;;;16.60;9.77;;;;;;;;;;5081702;28;20117;-73
2023/01/06 03:31:23;;;;;;;16.00;10.30;;;;;;;;;;5080484;28;20035;-73
2023/01/06 03:34:24;;;;;;;15.52;10.10;;;;;;;;;;5095190;28;20492;-73
2023/01/06 03:37:19;;;;;;;15.05;9.57;;;;;;;;;;5095061;28;20028;-73
2023/01/06 03:40:18;;;;;;;15.38;9.10;;;;;;;;;;5080865;28;20108;-73
2023/01/06 03:43:16;;;;;;;13.30;8.70;;;;;;;;;;5095664;28;20024;-73
2023/01/06 03:46:05;;;;;;;16.00;8.77;;;;;;;;;;5096597;28;20366;-72
2023/01/06 03:48:50;;;;;;;17.63;9.48;;;;;;;;;;5096001;28;20446;-72
2023/01/06 03:51:42;;;;;;;14.13;8.63;;;;;;;;;;5095216;28;20032;-72
2023/01/06 03:54:43;;;;;;;13.90;8.52;;;;;;;;;;5095775;28;20141;-73
2023/01/06 03:57:41;;;;;;;14.63;9.15;;;;;;;;;;5094719;28;20031;-72
2023/01/06 04:00:29;;;;;;;13.77;7.95;;;;;;;;;;5095870;28;20115;-72
2023/01/06 04:03:15;;;;;;;12.38;8.07;;;;;;;;;;5095048;28;20040;-72
2023/01/06 04:06:00;;;;;;;13.23;8.10;;;;;;;;;;5095374;28;20350;-74
2023/01/06 04:08:46;;;;;;;13.60;8.10;;;;;;;;;;5095293;28;20020;-73
2023/01/06 04:14:36;;;;;;;12.75;7.88;;;;;;;;;;5094645;28;20016;-73
2023/01/06 04:17:22;;;;;;;14.80;8.40;;;;;;;;;;5094973;28;20028;-73
2023/01/06 04:20:09;;;;;;;13.02;8.20;;;;;;;;;;5094388;28;20434;-73
2023/01/06 04:22:55;;;;;;;12.45;7.88;;;;;;;;;;5094553;28;20016;-72
2023/01/06 04:25:41;;;;;;;13.93;7.55;;;;;;;;;;5094121;28;20020;-73
2023/01/06 04:28:27;;;;;;;13.65;7.65;;;;;;;;;;5080015;28;20024;-74
2023/01/06 04:31:12;;;;;;;12.75;7.60;;;;;;;;;;5095163;28;20054;-73
2023/01/06 04:33:58;;;;;;;13.15;7.72;;;;;;;;;;5079334;28;20027;-73
2023/01/06 04:36:43;;;;;;;11.25;6.65;;;;;;;;;;5094353;28;20388;-73
2023/01/06 04:39:29;;;;;;;11.13;6.78;;;;;;;;;;5094881;28;20062;-73
2023/01/06 04:42:14;;;;;;;13.05;6.88;;;;;;;;;;5094380;28;20117;-73
2023/01/06 04:45:00;;;;;;;10.00;6.95;;;;;;;;;;5079453;28;20008;-73
2023/01/06 04:47:46;;;;;;;12.10;6.68;;;;;;;;;;5080048;28;20028;-73
2023/01/06 04:50:31;;;;;;;13.63;6.95;;;;;;;;;;5094842;28;20045;-72
2023/01/06 04:53:17;;;;;;;14.63;6.82;;;;;;;;;;5094165;28;20047;-74
2023/01/06 04:56:03;;;;;;;12.30;6.82;;;;;;;;;;5093228;28;20020;-74
2023/01/06 04:58:52;;;;;;;13.73;6.93;;;;;;;;;;5079629;28;20363;-74
2023/01/06 05:01:38;;;;;;;12.65;6.65;;;;;;;;;;5078624;28;20044;-74
2023/01/06 05:04:24;;;;;;;13.88;7.00;;;;;;;;;;5094210;28;20024;-75
2023/01/06 05:07:09;;;;;;;10.30;5.90;;;;;;;;;;5093935;28;20028;-72
2023/01/06 05:09:55;;;;;;;11.88;6.57;;;;;;;;;;5095500;28;20059;-73
2023/01/06 05:12:40;;;;;;;11.95;6.85;;;;;;;;;;5094592;28;20332;-74
2023/01/06 05:15:26;;;;;;;13.55;6.93;;;;;;;;;;5093124;28;20034;-73
2023/01/06 05:18:12;;;;;;;9.98;6.18;;;;;;;;;;5094260;28;20065;-73
2023/01/06 05:20:57;;;;;;;13.43;7.45;;;;;;;;;;5079210;28;20031;-73
2023/01/06 05:23:43;;;;;;;10.57;6.88;;;;;;;;;;5094436;28;20099;-74
2023/01/06 05:26:29;;;;;;;14.63;8.30;;;;;;;;;;5080157;28;20028;-73
2023/01/06 05:29:15;;;;;;;13.43;8.32;;;;;;;;;;5093593;28;20038;-73
2023/01/06 05:32:01;;;;;;;13.70;7.40;;;;;;;;;;5093659;28;20032;-73
2023/01/06 05:34:46;;;;;;;11.27;7.45;;;;;;;;;;5079971;28;20111;-74
2023/01/06 05:37:32;;;;;;;10.43;7.20;;;;;;;;;;5093141;28;20106;-72
2023/01/06 05:40:17;;;;;;;11.65;7.40;;;;;;;;;;5094272;28;20453;-73
2023/01/06 05:43:03;;;;;;;11.27;6.47;;;;;;;;;;5094047;28;20031;-73
2023/01/06 05:45:48;;;;;;;13.32;6.70;;;;;;;;;;5093277;28;20045;-72
2023/01/06 05:48:34;;;;;;;9.40;5.72;;;;;;;;;;5093691;28;20313;-73
2023/01/06 05:51:20;;;;;;;11.40;6.32;;;;;;;;;;5094014;28;20509;-73
2023/01/06 05:54:06;;;;;;;10.75;6.28;;;;;;;;;;5094228;28;20024;-73
2023/01/06 05:56:52;;;;;;;9.23;6.03;;;;;;;;;;5092314;28;20020;-73
2023/01/06 05:59:38;;;;;;;10.63;6.13;;;;;;;;;;5093175;28;20366;-73
2023/01/06 06:02:23;;;;;;;10.73;6.53;;;;;;;;;;5092655;28;20105;-72
2023/01/06 06:05:09;;;;;;;10.65;6.65;;;;;;;;;;5093178;28;20020;-73
2023/01/06 06:07:55;;;;;;;11.00;5.75;;;;;;;;;;5097225;28;20445;-73
2023/01/06 06:10:40;;;;;;;10.77;6.05;;;;;;;;;;5083769;28;20054;-73
2023/01/06 06:13:26;;;;;;;9.52;5.88;;;;;;;;;;5082001;28;20016;-73
2023/01/06 06:16:13;;;;;;;12.55;6.65;;;;;;;;;;5097710;28;20416;-72
2023/01/06 06:18:58;;;;;;;16.05;6.75;;;;;;;;;;5097316;28;20111;-71
2023/01/06 06:21:44;;;;;;;10.25;6.55;;;;;;;;;;5097965;28;20404;-72
2023/01/06 06:24:29;;;;;;;11.80;6.50;;;;;;;;;;5098369;28;20056;-72
2023/01/06 06:27:15;;;;;;;15.57;7.60;;;;;;;;;;5098245;28;20051;-73
2023/01/06 06:30:01;;;;;;;15.02;7.63;;;;;;;;;;5098392;28;20028;-73
2023/01/06 06:32:46;;;;;;;20.75;7.57;;;;;;;;;;5112007;28;20093;-72
2023/01/06 06:35:32;;;;;;;13.85;7.47;;;;;;;;;;5091129;28;20093;-73
2023/01/06 06:38:17;;;;;;;11.90;7.13;;;;;;;;;;5098076;28;20023;-73
2023/01/06 06:41:03;;;;;;;14.85;7.97;;;;;;;;;;5096456;28;20023;-72
2023/01/06 06:43:49;;;;;;;13.90;7.45;;;;;;;;;;5097618;28;20506;-73
2023/01/06 06:46:34;;;;;;;14.45;7.30;;;;;;;;;;5099993;28;20530;-72
2023/01/06 06:49:20;;;;;;;12.65;7.22;;;;;;;;;;5081678;28;20048;-73
2023/01/06 06:52:06;;;;;;;11.57;6.97;;;;;;;;;;5097759;28;20024;-72
2023/01/06 06:54:51;;;;;;;11.00;7.25;;;;;;;;;;5098191;28;20054;-72
2023/01/06 06:57:37;;;;;;;12.70;7.10;;;;;;;;;;5097268;28;20078;-73
2023/01/06 07:00:23;;;;;;;16.25;8.82;;;;;;;;;;5097180;28;20050;-73
2023/01/06 07:03:08;;;;;;;16.83;9.88;;;;;;;;;;5096891;28;20062;-73
2023/01/06 07:05:54;;;;;;;22.33;11.02;;;;;;;;;;5082073;28;20085;-73
2023/01/06 07:08:44;;;;;;;23.33;11.48;;;;;;;;;;5082313;28;20077;-73
2023/01/06 07:11:29;;;;;;;16.27;9.45;;;;;;;;;;5096081;28;20024;-73
2023/01/06 07:14:15;;;;;;;14.45;7.90;;;;;;;;;;5101014;28;20058;-73
2023/01/06 07:17:01;;;;;;;12.57;8.00;;;;;;;;;;5099086;28;20023;-73
2023/01/06 07:19:46;;;;;;;14.10;8.15;;;;;;;;;;5096541;28;20023;-73
2023/01/06 07:22:35;;;;;;;13.30;7.55;;;;;;;;;;5095768;28;20016;-74
2023/01/06 07:25:21;;;;;;;12.05;7.28;;;;;;;;;;5102381;28;20045;-72
2023/01/06 07:28:08;;;;;;;12.32;6.55;;;;;;;;;;5107903;28;20031;-75
2023/01/06 07:30:53;;;;;;;13.50;7.25;;;;;;;;;;5103241;28;20020;-74
2023/01/06 07:33:39;;;;;;;12.77;6.35;;;;;;;;;;5101681;28;20035;-74
2023/01/06 07:36:25;;;;;;;11.50;5.93;;;;;;;;;;5095473;28;20130;-73
2023/01/06 07:39:10;;;;;;;10.82;6.35;;;;;;;;;;5095941;28;20453;-74
2023/01/06 07:41:56;;;;;;;10.50;5.75;;;;;;;;;;5096603;28;20051;-74
2023/01/06 07:44:41;;;;;;;14.15;6.07;;;;;;;;;;5101810;28;20031;-75
2023/01/06 07:47:27;;;;;;;15.48;6.07;;;;;;;;;;5097058;28;20024;-74
2023/01/06 07:50:12;;;;;;;11.20;5.70;;;;;;;;;;5096101;28;20027;-73
2023/01/06 07:52:59;;;;;;;8.45;5.38;;;;;;;;;;5095539;28;20446;-74
2023/01/06 07:55:51;;;;;;;14.30;5.38;;;;;;;;;;5096343;28;20465;-73
2023/01/06 07:58:37;;;;;;;8.85;4.97;;;;;;;;;;5095984;28;20024;-73
2023/01/06 08:01:22;;;;;;;7.88;4.45;;;;;;;;;;5088239;28;20467;-73
2023/01/06 08:04:08;;;;;;;8.70;4.60;;;;;;;;;;5075673;28;20035;-73
2023/01/06 08:06:54;;;;;;;11.75;5.13;;;;;;;;;;5074363;28;20456;-73
2023/01/06 08:09:39;;;;;;;10.15;5.55;;;;;;;;;;5075218;28;20024;-74
2023/01/06 08:12:25;;;;;;;12.07;6.38;;;;;;;;;;5074174;28;20020;-74
2023/01/06 08:15:10;;;;;;;12.13;4.85;;;;;;;;;;5074839;28;20093;-73
2023/01/06 08:17:56;;;;;;;8.10;4.43;;;;;;;;;;5074339;28;20027;-75
2023/01/06 08:20:42;;;;;;;7.82;4.10;;;;;;;;;;5074443;28;20054;-74
2023/01/06 08:23:28;;;;;;;8.73;4.70;;;;;;;;;;5074350;28;20095;-73
2023/01/06 08:26:15;;;;;;;9.60;4.80;;;;;;;;;;5075828;28;20035;-74
2023/01/06 08:29:00;;;;;;;7.25;4.43;;;;;;;;;;5074518;28;20081;-73
2023/01/06 08:31:46;;;;;;;9.05;4.78;;;;;;;;;;5059009;28;20017;-73
2023/01/06 08:34:32;;;;;;;7.28;4.40;;;;;;;;;;5073920;28;20103;-72
2023/01/06 08:37:17;;;;;;;10.73;6.47;;;;;;;;;;5074669;28;20103;-73
2023/01/06 08:40:03;;;;;;;7.82;4.70;;;;;;;;;;5074331;28;20025;-73
2023/01/06 08:42:49;;;;;;;8.73;4.53;;;;;;;;;;5075170;28;20103;-74
2023/01/06 08:45:37;;;;;;;14.00;5.28;;;;;;;;;;5074726;28;20472;-74
2023/01/06 08:48:22;;;;;;;7.25;4.03;;;;;;;;;;5074378;28;20036;-73
2023/01/06 08:51:13;;;;;;;9.75;4.32;;;;;;;;;;5074479;28;20169;-73
2023/01/06 08:53:59;;;;;;;8.13;4.05;;;;;;;;;;5061462;28;20056;-73
2023/01/06 08:56:45;;;;;;;9.07;5.30;;;;;;;;;;5073561;28;20054;-73
2023/01/06 08:59:30;;;;;;;11.75;5.15;;;;;;;;;;5073975;28;20048;-73
2023/01/06 09:02:30;;;;;;;9.68;4.65;;;;;;;;;;5092222;27;20398;-71
2023/01/06 09:05:15;;;;;;;10.32;4.50;;;;;;;;;;5132061;28;20049;-73
2023/01/06 09:08:01;;;;;;;12.70;4.90;;;;;;;;;;5132527;28;20328;-73
2023/01/06 09:10:47;;;;;;;7.53;4.18;;;;;;;;;;5133243;27;20042;-74
2023/01/06 09:13:33;;;;;;;10.57;5.72;;;;;;;;;;5131628;28;20122;-74
2023/01/06 09:16:19;;;;;;;7.53;4.15;;;;;;;;;;5132396;28;20030;-73
2023/01/06 09:19:05;;;;;;;10.15;4.65;;;;;;;;;;5117891;28;20333;-73
2023/01/06 09:21:50;;;;;;;8.38;4.40;;;;;;;;;;5131970;28;20019;-73
2023/01/06 09:24:36;;;;;;;7.85;3.78;;;;;;;;;;5133233;28;20110;-74
2023/01/06 09:27:22;;;;;;;13.48;5.85;;;;;;;;;;5117475;28;20406;-73
2023/01/06 09:30:08;;;;;;;8.40;4.97;;;;;;;;;;5118236;28;20030;-73
2023/01/06 09:32:53;;;;;;;8.77;4.65;;;;;;;;;;5117884;28;20028;-74
2023/01/06 09:35:39;;;;;;;7.40;4.03;;;;;;;;;;5131130;28;20029;-72
2023/01/06 09:38:26;;;;;;;8.95;4.68;;;;;;;;;;5131625;28;20023;-73
2023/01/06 09:41:31;;;;;;;8.48;4.32;;;;;;;;;;5118043;28;20023;-73
2023/01/06 09:44:19;;;;;;;9.27;4.82;;;;;;;;;;5131683;28;20128;-73
2023/01/06 09:47:07;;;;;;;8.20;4.68;;;;;;;;;;5131684;28;20043;-72
2023/01/06 09:50:12;;;;;;;14.25;8.05;;;;;;;;;;5118755;28;20084;-72
2023/01/06 09:53:00;;;;;;;24.10;12.85;;;;;;;;;;5117593;28;20449;-74
2023/01/06 09:55:47;;;;;;;14.45;9.00;;;;;;;;;;5132630;28;20034;-74
2023/01/06 09:58:36;;;;;;;13.00;8.18;;;;;;;;;;5131584;28;20047;-74
2023/01/06 10:01:26;;;;;;;6.50;4.20;;;;;;;;;;5131345;28;20044;-73
2023/01/06 10:04:17;;;;;;;8.57;3.75;;;;;;;;;;5132505;28;20015;-74
2023/01/06 10:07:16;;;;;;;7.68;3.72;;;;;;;;;;5117091;28;20023;-73
2023/01/06 10:10:11;;;;;;;5.45;3.67;;;;;;;;;;5131577;28;20012;-73
2023/01/06 10:13:14;;;;;;;6.45;3.50;;;;;;;;;;5122679;28;20031;-73
2023/01/06 10:16:11;;;;;;;8.02;3.50;;;;;;;;;;5103184;28;20107;-73
2023/01/06 10:19:08;;;;;;;4.82;2.97;;;;;;;;;;5118233;28;20031;-74
2023/01/06 10:22:02;;;;;;;7.03;3.28;;;;;;;;;;5118149;28;20119;-73
2023/01/06 10:24:54;;;;;;;6.60;3.58;;;;;;;;;;5119138;28;20012;-73
2023/01/06 10:27:41;;;;;;;6.20;3.47;;;;;;;;;;5117854;28;20019;-74
2023/01/06 10:30:33;;;;;;;7.07;3.65;;;;;;;;;;5117446;28;20020;-73
2023/01/06 10:33:30;;;;;;;7.38;3.17;;;;;;;;;;5103356;28;20058;-74
2023/01/06 10:36:17;;;;;;;6.18;3.53;;;;;;;;;;5117676;28;20016;-74
2023/01/06 10:39:06;;;;;;;4.45;2.90;;;;;;;;;;5115895;28;20023;-74
2023/01/06 10:41:51;;;;;;;7.05;3.25;;;;;;;;;;5117537;28;20015;-73
2023/01/06 10:44:37;;;;;;;6.47;3.42;;;;;;;;;;5118843;27;20157;-73
2023/01/06 10:47:26;;;;;;;5.40;3.10;;;;;;;;;;5102227;28;20333;-73
2023/01/06 10:50:16;;;;;;;9.07;3.63;;;;;;;;;;5102816;28;20515;-73
2023/01/06 10:53:02;;;;;;;6.63;2.63;;;;;;;;;;5104191;27;20019;-73
2023/01/06 10:55:55;;;;;;;5.15;3.00;;;;;;;;;;5116376;28;20044;-74
2023/01/06 10:58:40;;;;;;;5.82;2.97;;;;;;;;;;5116534;28;20015;-73
2023/01/06 11:01:28;;;;;;;6.80;3.63;;;;;;;;;;5115954;28;20062;-73
2023/01/06 11:04:16;;;;;;;6.72;2.92;;;;;;;;;;5116214;28;20031;-73
2023/01/06 11:07:02;;;;;;;5.45;2.90;;;;;;;;;;5116536;28;20073;-74
2023/01/06 11:09:50;;;;;;;4.68;2.83;;;;;;;;;;5100527;28;20410;-73
2023/01/06 11:12:35;;;;;;;5.07;2.88;;;;;;;;;;5117479;27;20029;-74
2023/01/06 11:15:33;;;;;;;8.48;2.83;;;;;;;;;;5101695;28;20029;-74
2023/01/06 11:18:21;;;;;;;5.25;2.70;;;;;;;;;;5116826;28;20030;-73
2023/01/06 11:21:15;;;;;;;5.93;2.83;;;;;;;;;;5115640;28;20012;-73
2023/01/06 11:24:08;;;;;;;6.20;3.00;;;;;;;;;;5123051;28;20027;-73
2023/01/06 11:26:55;;;;;;;6.00;2.60;;;;;;;;;;5130607;28;20042;-72
2023/01/06 11:29:40;;;;;;;5.72;2.97;;;;;;;;;;5127570;28;20015;-74
2023/01/06 11:32:27;;;;;;;3.42;2.25;;;;;;;;;;5115438;28;20019;-73
2023/01/06 11:35:19;;;;;;;12.68;6.50;;;;;;;;;;5115238;28;20463;-73
2023/01/06 11:38:04;;;;;;;5.53;2.70;;;;;;;;;;5116781;28;20063;-73
2023/01/06 11:40:51;;;;;;;8.15;2.25;;;;;;;;;;5101658;28;20454;-74
2023/01/06 11:43:38;;;;;;;6.25;2.28;;;;;;;;;;5102059;28;20058;-73
2023/01/06 11:46:24;;;;;;;5.10;2.85;;;;;;;;;;5116051;28;20024;-73
2023/01/06 11:49:13;;;;;;;5.72;2.63;;;;;;;;;;5105372;28;20050;-73
2023/01/06 11:52:01;;;;;;;19.15;9.48;;;;;;;;;;5117235;28;20019;-74
2023/01/06 11:54:57;;;;;;;11.45;3.95;;;;;;;;;;5116652;28;20027;-74
2023/01/06 11:57:55;;;;;;;7.68;3.35;;;;;;;;;;5116905;28;20019;-74
2023/01/06 12:00:46;;;;;;;34.92;16.40;;;;;;;;;;5101166;28;20120;-74
2023/01/06 12:03:35;;;;;;;6.70;3.40;;;;;;;;;;5115984;28;20030;-73
2023/01/06 12:06:32;;;;;;;9.77;5.70;;;;;;;;;;5101734;28;20023;-74
2023/01/06 12:09:21;;;;;;;9.10;3.65;;;;;;;;;;5113710;28;20012;-72
2023/01/06 12:12:08;;;;;;;4.68;2.90;;;;;;;;;;5115238;28;20027;-73
2023/01/06 12:14:55;;;;;;;5.13;2.60;;;;;;;;;;5114959;28;20406;-72
2023/01/06 12:17:47;;;;;;;8.90;3.15;;;;;;;;;;5114504;28;20465;-73
2023/01/06 12:20:35;;;;;;;137.13;40.95;;;;;;;;;;5114828;28;20336;-73
2023/01/06 12:23:28;;;;;;;30.50;9.38;;;;;;;;;;5100417;28;20024;-73
2023/01/06 12:26:16;;;;;;;27.60;10.98;;;;;;;;;;5114568;28;20321;-77
2023/01/06 12:29:03;;;;;;;12.90;6.05;;;;;;;;;;5114155;28;20038;-77
2023/01/06 12:32:02;;;;;;;118.40;45.83;;;;;;;;;;5101444;28;20444;-75
2023/01/06 12:34:50;;;;;;;20.65;8.50;;;;;;;;;;5113497;28;20027;-74
2023/01/06 12:37:38;;;;;;;38.70;14.75;;;;;;;;;;5115879;28;20031;-77
2023/01/06 12:40:30;;;;;;;5.05;2.30;;;;;;;;;;5098062;28;20102;-76
2023/01/06 12:43:17;;;;;;;6.78;3.08;;;;;;;;;;5100273;28;20499;-73
2023/01/06 12:46:05;;;;;;;12.35;4.85;;;;;;;;;;5115315;28;20024;-75
2023/01/06 12:49:00;;;;;;;4.30;2.20;;;;;;;;;;5115426;28;20332;-73
2023/01/06 12:51:48;;;;;;;4.93;2.90;;;;;;;;;;5115037;28;20039;-74
2023/01/06 12:54:34;;;;;;;10.07;3.30;;;;;;;;;;5114369;28;20049;-73
2023/01/06 12:57:20;;;;;;;4.40;2.38;;;;;;;;;;5115484;28;20447;-74
2023/01/06 13:00:20;;;;;;;7.07;2.83;;;;;;;;;;5114309;28;20024;-74
2023/01/06 13:03:18;;;;;;;6.38;3.30;;;;;;;;;;5115079;28;20027;-76
2023/01/06 13:06:27;;;;;;;9.27;4.32;;;;;;;;;;5114135;28;20385;-74
2023/01/06 13:09:16;;;;;;;5.80;3.20;;;;;;;;;;5115124;28;20019;-74
2023/01/06 13:12:08;;;;;;;12.30;3.80;;;;;;;;;;5099331;28;20067;-74
2023/01/06 13:15:02;;;;;;;6.20;3.65;;;;;;;;;;5100114;28;20096;-74
2023/01/06 13:17:50;;;;;;;6.75;3.60;;;;;;;;;;5115137;28;20107;-75
2023/01/06 13:20:42;;;;;;;4.63;2.60;;;;;;;;;;5114134;28;20023;-73
2023/01/06 13:23:28;;;;;;;5.07;2.55;;;;;;;;;;5115056;28;20023;-73
2023/01/06 13:26:22;;;;;;;4.88;2.88;;;;;;;;;;5114140;28;20015;-74
2023/01/06 13:29:20;;;;;;;7.00;3.42;;;;;;;;;;5100324;28;20016;-73
2023/01/06 13:32:24;;;;;;;8.45;3.63;;;;;;;;;;5114870;28;20024;-73
2023/01/06 13:35:10;;;;;;;13.10;5.72;;;;;;;;;;5114653;28;20019;-74
2023/01/06 13:37:55;;;;;;;7.05;2.63;;;;;;;;;;5115934;28;20016;-73
2023/01/06 13:40:41;;;;;;;6.40;3.15;;;;;;;;;;5119319;28;20118;-72
2023/01/06 13:43:28;;;;;;;7.82;3.55;;;;;;;;;;5114764;28;20020;-73
2023/01/06 13:46:16;;;;;;;7.95;3.05;;;;;;;;;;5099670;28;20278;-74
2023/01/06 13:49:03;;;;;;;5.82;2.92;;;;;;;;;;5118436;28;20107;-74
2023/01/06 13:51:49;;;;;;;4.88;2.72;;;;;;;;;;5104933;28;20035;-74
2023/01/06 13:54:40;;;;;;;8.70;4.45;;;;;;;;;;5119714;28;20180;-73
2023/01/06 13:57:28;;;;;;;8.63;5.22;;;;;;;;;;5118844;28;20024;-73
2023/01/06 14:00:15;;;;;;;8.93;4.22;;;;;;;;;;5119391;27;20020;-72
2023/01/06 14:03:01;;;;;;;11.32;5.68;;;;;;;;;;5118434;28;20100;-73
2023/01/06 14:05:48;;;;;;;10.75;4.43;;;;;;;;;;5118852;28;20023;-74
2023/01/06 14:08:36;;;;;;;7.40;4.05;;;;;;;;;;5118778;28;20023;-73
2023/01/06 14:11:31;;;;;;;28.17;14.75;;;;;;;;;;5119049;28;20023;-73
2023/01/06 14:14:25;;;;;;;7.47;4.40;;;;;;;;;;5116526;28;20084;-73
2023/01/06 14:17:35;;;;;;;8.73;3.95;;;;;;;;;;5102345;28;20367;-74
2023/01/06 14:20:35;;;;;;;12.15;6.13;;;;;;;;;;5118030;28;20016;-74
2023/01/06 14:23:23;;;;;;;12.55;4.30;;;;;;;;;;5117410;28;20435;-73
2023/01/06 14:26:09;;;;;;;10.60;4.05;;;;;;;;;;5103025;28;20034;-74
2023/01/06 14:29:14;;;;;;;10.48;5.82;;;;;;;;;;5103238;28;20080;-74
2023/01/06 14:32:00;;;;;;;8.13;4.53;;;;;;;;;;5116296;28;20020;-73
2023/01/06 14:34:57;;;;;;;12.90;4.93;;;;;;;;;;5102811;28;20019;-75
2023/01/06 14:37:50;;;;;;;22.08;6.22;;;;;;;;;;5102305;28;20020;-73
2023/01/06 14:40:45;;;;;;;18.42;6.90;;;;;;;;;;5116955;28;20069;-73
2023/01/06 14:43:33;;;;;;;23.25;7.75;;;;;;;;;;5103447;28;20016;-73
2023/01/06 14:46:26;;;;;;;16.50;6.03;;;;;;;;;;5117607;28;20023;-72
2023/01/06 14:49:17;;;;;;;12.85;5.60;;;;;;;;;;5117928;28;20095;-72
2023/01/06 14:52:07;;;;;;;15.45;6.28;;;;;;;;;;5116281;28;20039;-76
2023/01/06 14:54:53;;;;;;;12.57;6.10;;;;;;;;;;5117209;28;20069;-74
2023/01/06 14:57:39;;;;;;;15.80;7.70;;;;;;;;;;5101683;28;20356;-74
2023/01/06 15:00:28;;;;;;;15.50;6.57;;;;;;;;;;5116356;28;20043;-73
2023/01/06 15:03:19;;;;;;;14.18;6.50;;;;;;;;;;5118063;28;20020;-74
2023/01/06 15:06:09;;;;;;;11.82;4.80;;;;;;;;;;5116906;28;20091;-74
2023/01/06 15:09:09;;;;;;;10.02;5.22;;;;;;;;;;5116621;28;20359;-74
2023/01/06 15:11:55;;;;;;;10.93;5.90;;;;;;;;;;5117604;28;20028;-76
2023/01/06 15:14:40;;;;;;;12.23;6.80;;;;;;;;;;5115855;28;20073;-74
2023/01/06 15:17:26;;;;;;;19.02;6.85;;;;;;;;;;5116693;28;20015;-72
2023/01/06 15:20:12;;;;;;;20.92;8.98;;;;;;;;;;5116630;28;20366;-74
2023/01/06 15:22:59;;;;;;;19.02;9.15;;;;;;;;;;5101606;28;20047;-74
2023/01/06 15:25:48;;;;;;;18.65;7.13;;;;;;;;;;5116392;28;20160;-75
2023/01/06 15:28:34;;;;;;;22.27;7.22;;;;;;;;;;5116359;28;20020;-73
2023/01/06 15:31:19;;;;;;;17.13;8.05;;;;;;;;;;5116148;28;20030;-74
2023/01/06 15:34:09;;;;;;;10.60;5.38;;;;;;;;;;5116328;28;20028;-73
2023/01/06 15:36:55;;;;;;;12.18;5.15;;;;;;;;;;5115039;28;20440;-74
2023/01/06 15:39:41;;;;;;;10.73;5.30;;;;;;;;;;5101505;28;20316;-75
2023/01/06 15:42:27;;;;;;;8.05;4.28;;;;;;;;;;5116363;28;20073;-74
2023/01/06 15:45:32;;;;;;;7.70;3.70;;;;;;;;;;5115984;28;20365;-74
2023/01/06 15:48:19;;;;;;;12.18;5.13;;;;;;;;;;5100820;28;20015;-74
2023/01/06 15:51:09;;;;;;;7.57;3.65;;;;;;;;;;5115809;28;20066;-74
2023/01/06 15:53:57;;;;;;;5.38;3.60;;;;;;;;;;5115931;28;20333;-74
2023/01/06 15:56:43;;;;;;;21.02;10.93;;;;;;;;;;5116108;28;20023;-73
2023/01/06 15:59:29;;;;;;;21.02;10.45;;;;;;;;;;5116340;28;20355;-72
2023/01/06 16:02:18;;;;;;;8.85;3.88;;;;;;;;;;5115523;28;20124;-73
2023/01/06 16:05:04;;;;;;;7.35;3.63;;;;;;;;;;5115755;28;20019;-72
2023/01/06 16:07:59;;;;;;;8.20;4.18;;;;;;;;;;5115657;28;20377;-73
2023/01/06 16:10:45;;;;;;;7.65;4.28;;;;;;;;;;5114769;28;20360;-73
2023/01/06 16:13:31;;;;;;;12.43;5.00;;;;;;;;;;5100649;28;20415;-74
2023/01/06 16:16:16;;;;;;;11.52;5.40;;;;;;;;;;5115837;28;20048;-72
2023/01/06 16:19:09;;;;;;;8.98;5.50;;;;;;;;;;5115545;28;20030;-73
2023/01/06 16:21:55;;;;;;;9.43;5.30;;;;;;;;;;5115040;28;20024;-72
2023/01/06 16:24:41;;;;;;;13.65;5.15;;;;;;;;;;5115456;28;20016;-73
2023/01/06 16:27:26;;;;;;;14.38;5.20;;;;;;;;;;5114655;28;20466;-72
2023/01/06 16:30:12;;;;;;;6.60;4.10;;;;;;;;;;5115473;28;20432;-72
2023/01/06 16:33:00;;;;;;;15.02;5.50;;;;;;;;;;5100858;28;20012;-72
2023/01/06 16:35:50;;;;;;;11.95;5.45;;;;;;;;;;5115466;28;20491;-72
2023/01/06 16:38:37;;;;;;;10.45;5.32;;;;;;;;;;5108065;28;20054;-71
2023/01/06 16:41:22;;;;;;;6.35;3.65;;;;;;;;;;5117571;28;20079;-71
2023/01/06 16:44:08;;;;;;;6.50;3.63;;;;;;;;;;5115763;28;20023;-72